createdAt,value
2022-08-09T00:00:13.303Z,102509.88
2022-08-09T00:02:42.841Z,102509.16
2022-08-09T00:06:18.956Z,102510.88
2022-08-09T00:08:02.344Z,102513.44
2022-08-09T00:10:29.003Z,102508.50
2022-08-09T00:12:56.911Z,102507.28
2022-08-09T00:15:35.504Z,102502.13
2022-08-09T00:18:12.333Z,102508.72
2022-08-09T00:20:42.159Z,102515.06
2022-08-09T00:23:55.199Z,102511.38
2022-08-09T00:26:04.866Z,102517.41
2022-08-09T00:28:32.221Z,102504.94
2022-08-09T00:31:09.318Z,102511.16
2022-08-09T00:33:52.437Z,102508.56
2022-08-09T00:36:19.649Z,102508.13
2022-08-09T00:38:46.162Z,102517.69
2022-08-09T00:44:14.737Z,102513.91
2022-08-09T00:44:19.571Z,102517.91
2022-08-09T00:46:55.883Z,102518.94
2022-08-09T00:49:24.672Z,102516.53
2022-08-09T00:51:56.438Z,102521.44
2022-08-09T00:54:35.110Z,102510.00
2022-08-09T00:57:08.761Z,102515.97
2022-08-09T00:59:46.714Z,102518.44
2022-08-09T01:02:20.977Z,102517.59
2022-08-09T01:04:57.253Z,102510.66
2022-08-09T01:08:00.448Z,102516.19
2022-08-09T01:10:45.813Z,102517.47
2022-08-09T01:13:24.906Z,102521.63
2022-08-09T01:15:59.334Z,102517.31
2022-08-09T01:18:31.401Z,102519.59
2022-08-09T01:21:17.042Z,102527.75
2022-08-09T01:24:02.837Z,102524.03
2022-08-09T01:26:43.149Z,102523.78
2022-08-09T01:29:15.366Z,102528.09
2022-08-09T01:32:32.042Z,102529.34
2022-08-09T01:34:33.710Z,102517.16
2022-08-09T01:37:02.645Z,102530.91
2022-08-09T01:39:31.174Z,102530.97
2022-08-09T01:42:10.901Z,102529.91
2022-08-09T01:44:38.477Z,102534.44
2022-08-09T01:47:05.993Z,102540.75
2022-08-09T01:49:38.995Z,102533.13
2022-08-09T01:52:10.654Z,102530.84
2022-08-09T01:54:39.924Z,102534.31
2022-08-09T01:57:10.896Z,102535.13
2022-08-09T01:59:51.768Z,102545.91
2022-08-09T02:02:22.545Z,102536.22
2022-08-09T02:04:50.090Z,102542.19
2022-08-09T02:08:40.139Z,102540.91
2022-08-09T02:10:33.167Z,102553.34
2022-08-09T02:13:03.277Z,102552.38
2022-08-09T02:15:48.897Z,102551.91
2022-08-09T02:18:23.931Z,102558.19
2022-08-09T02:21:05.549Z,102550.16
2022-08-09T02:23:39.911Z,102542.91
2022-08-09T02:26:24.847Z,102542.44
2022-08-09T02:28:56.191Z,102545.69
2022-08-09T02:31:35.441Z,102548.94
2022-08-09T02:34:13.563Z,102548.16
2022-08-09T02:36:53.833Z,102548.03
2022-08-09T02:39:33.754Z,102550.69
2022-08-09T02:42:09.202Z,102550.28
2022-08-09T02:44:46.606Z,102553.84
2022-08-09T02:47:15.512Z,102552.75
2022-08-09T02:50:01.516Z,102548.25
2022-08-09T02:52:35.359Z,102548.78
2022-08-09T02:55:03.422Z,102543.00
2022-08-09T02:58:00.750Z,102539.91
2022-08-09T03:00:35.629Z,102539.00
2022-08-09T03:03:06.462Z,102539.66
2022-08-09T03:05:35.280Z,102540.69
2022-08-09T03:08:04.137Z,102544.19
2022-08-09T03:10:31.580Z,102550.50
2022-08-09T03:12:58.158Z,102547.03
2022-08-09T03:15:25.921Z,102554.22
2022-08-09T03:18:13.570Z,102558.03
2022-08-09T03:20:45.987Z,102556.13
2022-08-09T03:23:24.217Z,102559.84
2022-08-09T03:25:57.995Z,102550.75
2022-08-09T03:28:31.148Z,102555.97
2022-08-09T03:30:58.303Z,102552.66
2022-08-09T03:33:25.864Z,102557.38
2022-08-09T03:36:16.313Z,102560.47
2022-08-09T03:38:44.765Z,102561.63
2022-08-09T03:41:16.678Z,102561.66
2022-08-09T03:44:03.099Z,102566.69
2022-08-09T03:46:32.318Z,102557.50
2022-08-09T03:49:04.046Z,102549.50
2022-08-09T03:51:57.382Z,102558.66
2022-08-09T03:54:29.684Z,102554.75
2022-08-09T03:56:58.293Z,102555.75
2022-08-09T03:59:33.017Z,102559.72
2022-08-09T04:02:11.466Z,102565.66
2022-08-09T04:04:40.954Z,102560.56
2022-08-09T04:07:12.256Z,102555.97
2022-08-09T04:09:41.628Z,102557.41
2022-08-09T04:12:30.822Z,102558.69
2022-08-09T04:15:01.646Z,102560.19
2022-08-09T04:17:29.611Z,102564.06
2022-08-09T04:19:56.794Z,102562.84
2022-08-09T04:22:23.628Z,102552.97
2022-08-09T04:24:50.569Z,102567.47
2022-08-09T04:27:22.265Z,102567.81
2022-08-09T04:29:50.494Z,102562.28
2022-08-09T04:32:34.145Z,102562.19
2022-08-09T04:35:08.516Z,102565.25
2022-08-09T04:37:45.602Z,102565.41
2022-08-09T04:40:19.010Z,102571.38
2022-08-09T04:42:48.652Z,102569.47
2022-08-09T04:45:16.483Z,102566.03
2022-08-09T04:48:01.115Z,102582.41
2022-08-09T04:50:34.768Z,102582.28
2022-08-09T04:53:13.112Z,102585.53
2022-08-09T04:55:58.452Z,102578.19
2022-08-09T04:58:27.528Z,102587.16
2022-08-09T05:00:55.352Z,102585.69
2022-08-09T05:03:40.549Z,102589.66
2022-08-09T05:06:26.820Z,102590.75
2022-08-09T05:09:00.510Z,102598.25
2022-08-09T05:11:32.271Z,102591.97
2022-08-09T05:14:02.190Z,102593.38
2022-08-09T05:16:32.878Z,102598.00
2022-08-09T05:19:00.656Z,102596.91
2022-08-09T05:21:30.264Z,102603.09
2022-08-09T05:24:04.032Z,102602.66
2022-08-09T05:26:36.434Z,102601.97
2022-08-09T05:29:17.214Z,102594.13
2022-08-09T05:31:48.295Z,102600.06
2022-08-09T05:34:18.550Z,102607.81
2022-08-09T05:36:47.228Z,102611.22
2022-08-09T05:39:28.872Z,102615.75
2022-08-09T05:42:04.336Z,102618.25
2022-08-09T05:44:32.762Z,102624.00
2022-08-09T05:47:01.221Z,102610.59
2022-08-09T05:50:23.311Z,102621.66
2022-08-09T05:52:18.141Z,102621.03
2022-08-09T05:54:49.204Z,102613.50
2022-08-09T05:57:17.510Z,102619.09
2022-08-09T05:59:45.964Z,102623.34
2022-08-09T06:02:17.043Z,102620.81
2022-08-09T06:04:46.272Z,102630.19
2022-08-09T06:07:21.380Z,102625.84
2022-08-09T06:10:01.743Z,102626.88
2022-08-09T06:12:31.021Z,102630.53
2022-08-09T06:15:01.129Z,102633.28
2022-08-09T06:17:39.157Z,102635.28
2022-08-09T06:20:08.291Z,102643.16
2022-08-09T06:22:35.674Z,102643.50
2022-08-09T06:25:02.979Z,102641.13
2022-08-09T06:27:42.389Z,102646.28
2022-08-09T06:30:16.052Z,102647.22
2022-08-09T06:33:00.960Z,102651.53
2022-08-09T06:35:35.878Z,102658.09
2022-08-09T06:38:17.276Z,102654.31
2022-08-09T06:40:46.000Z,102654.44
2022-08-09T06:43:13.583Z,102647.41
2022-08-09T06:46:07.039Z,102653.09
2022-08-09T06:48:30.949Z,102659.13
2022-08-09T06:50:59.282Z,102648.41
2022-08-09T06:53:25.846Z,102647.84
2022-08-09T06:55:52.669Z,102652.31
2022-08-09T06:58:40.765Z,102649.78
2022-08-09T07:01:08.058Z,102658.53
2022-08-09T07:03:39.665Z,102662.06
2022-08-09T07:06:19.994Z,102664.00
2022-08-09T07:08:46.919Z,102653.50
2022-08-09T07:11:17.725Z,102664.69
2022-08-09T07:14:04.436Z,102663.00
2022-08-09T07:16:39.116Z,102657.09
2022-08-09T07:19:07.776Z,102659.75
2022-08-09T07:21:34.419Z,102656.19
2022-08-09T07:24:03.311Z,102655.22
2022-08-09T07:26:31.913Z,102658.75
2022-08-09T07:29:09.187Z,102658.81
2022-08-09T07:31:45.573Z,102654.28
2022-08-09T07:34:20.618Z,102667.63
2022-08-09T07:36:49.145Z,102658.59
2022-08-09T07:39:20.518Z,102655.47
2022-08-09T07:42:02.625Z,102669.59
2022-08-09T07:44:36.988Z,102665.28
2022-08-09T07:47:16.248Z,102659.94
2022-08-09T07:49:52.302Z,102658.69
2022-08-09T07:52:30.151Z,102658.28
2022-08-09T07:54:57.545Z,102657.59
2022-08-09T07:57:24.145Z,102655.50
2022-08-09T08:00:03.073Z,102669.03
2022-08-09T08:02:30.617Z,102656.75
2022-08-09T08:04:57.381Z,102661.81
2022-08-09T08:08:43.437Z,102667.41
2022-08-09T08:10:11.863Z,102669.06
2022-08-09T08:12:42.490Z,102664.03
2022-08-09T08:15:16.849Z,102664.94
2022-08-09T08:17:52.992Z,102656.75
2022-08-09T08:20:28.794Z,102663.75
2022-08-09T08:22:58.575Z,102660.56
2022-08-09T08:25:44.071Z,102664.59
2022-08-09T08:28:14.403Z,102669.69
2022-08-09T08:30:43.241Z,102658.00
2022-08-09T08:33:12.051Z,102657.28
2022-08-09T08:35:53.187Z,102661.94
2022-08-09T08:38:28.268Z,102663.59
2022-08-09T08:40:55.963Z,102664.63
2022-08-09T08:43:24.226Z,102662.78
2022-08-09T08:46:04.036Z,102663.91
2022-08-09T08:48:51.437Z,102660.78
2022-08-09T08:51:18.865Z,102659.72
2022-08-09T08:54:03.739Z,102665.78
2022-08-09T08:56:37.484Z,102667.53
2022-08-09T08:59:18.994Z,102675.13
2022-08-09T09:01:53.371Z,102675.19
2022-08-09T09:04:31.204Z,102673.28
2022-08-09T09:07:07.866Z,102665.50
2022-08-09T09:09:58.786Z,102670.41
2022-08-09T09:12:29.063Z,102675.69
2022-08-09T09:14:58.753Z,102681.50
2022-08-09T09:17:25.414Z,102680.91
2022-08-09T09:20:15.390Z,102680.41
2022-08-09T09:22:55.734Z,102687.00
2022-08-09T09:26:03.620Z,102678.44
2022-08-09T09:28:39.161Z,102679.41
2022-08-09T09:31:17.185Z,102679.06
2022-08-09T09:33:44.900Z,102683.16
2022-08-09T09:36:20.358Z,102683.19
2022-08-09T09:38:56.846Z,102684.00
2022-08-09T09:41:24.030Z,102674.94
2022-08-09T09:44:12.925Z,102674.28
2022-08-09T09:46:42.915Z,102668.97
2022-08-09T09:49:13.543Z,102669.97
2022-08-09T09:51:41.420Z,102672.81
2022-08-09T09:54:21.025Z,102677.78
2022-08-09T09:56:53.276Z,102669.69
2022-08-09T09:59:36.131Z,102670.19
2022-08-09T10:02:02.699Z,102663.28
2022-08-09T10:04:30.419Z,102659.44
2022-08-09T10:06:57.285Z,102663.88
2022-08-09T10:09:24.356Z,102660.41
2022-08-09T10:12:14.390Z,102669.78
2022-08-09T10:14:47.992Z,102670.75
2022-08-09T10:17:51.229Z,102659.38
2022-08-09T10:20:15.025Z,102667.44
2022-08-09T10:22:42.214Z,102663.41
2022-08-09T10:25:11.696Z,102666.53
2022-08-09T10:27:57.329Z,102670.47
2022-08-09T10:34:05.261Z,102668.25
2022-08-09T10:36:01.240Z,102660.91
2022-08-09T10:38:55.363Z,102649.34
2022-08-09T10:41:17.794Z,102654.59
2022-08-09T10:43:50.767Z,102648.97
2022-08-09T10:46:26.863Z,102645.28
2022-08-09T10:48:59.034Z,102639.59
2022-08-09T10:51:52.990Z,102644.47
2022-08-09T10:54:24.072Z,102653.69
2022-08-09T10:57:08.729Z,102660.03
2022-08-09T10:59:55.265Z,102647.19
2022-08-09T11:03:12.073Z,102647.94
2022-08-09T11:05:30.103Z,102650.72
2022-08-09T11:07:59.447Z,102647.34
2022-08-09T11:10:53.303Z,102651.50
2022-08-09T11:13:49.432Z,102642.50
2022-08-09T11:16:43.533Z,102643.16
2022-08-09T11:19:13.693Z,102638.44
2022-08-09T11:21:57.246Z,102634.13
2022-08-09T11:25:10.366Z,102637.84
2022-08-09T11:28:05.637Z,102630.88
2022-08-09T11:30:32.779Z,102628.25
2022-08-09T11:33:16.546Z,102626.56
2022-08-09T11:35:49.088Z,102628.53
2022-08-09T11:38:32.926Z,102627.91
2022-08-09T11:41:05.276Z,102628.19
2022-08-09T11:43:32.311Z,102622.63
2022-08-09T11:46:04.815Z,102614.34
2022-08-09T11:48:35.999Z,102617.75
2022-08-09T11:51:21.324Z,102613.44
2022-08-09T11:54:27.453Z,102607.38
2022-08-09T11:58:00.778Z,102609.09
2022-08-09T12:00:27.493Z,102611.03
2022-08-09T12:02:56.492Z,102605.59
2022-08-09T12:05:39.737Z,102609.47
2022-08-09T12:08:21.546Z,102611.41
2022-08-09T12:10:50.018Z,102617.75
2022-08-09T12:14:10.046Z,102621.31
2022-08-09T12:16:39.981Z,102615.44
2022-08-09T12:19:09.670Z,102617.72
2022-08-09T12:21:38.280Z,102615.91
2022-08-09T12:24:09.628Z,102613.50
2022-08-09T12:26:44.903Z,102613.81
2022-08-09T12:29:43.719Z,102615.53
2022-08-09T12:32:25.747Z,102615.28
2022-08-09T12:35:02.607Z,102608.84
2022-08-09T12:37:49.912Z,102610.06
2022-08-09T12:40:18.934Z,102606.34
2022-08-09T12:42:46.050Z,102603.19
2022-08-09T12:45:34.206Z,102609.38
2022-08-09T12:47:59.758Z,102597.19
2022-08-09T12:50:27.247Z,102601.53
2022-08-09T12:53:09.249Z,102592.75
2022-08-09T12:56:12.145Z,102587.13
2022-08-09T12:58:28.714Z,102596.09
2022-08-09T13:00:56.062Z,102588.38
2022-08-09T13:03:53.528Z,102588.78
2022-08-09T13:06:34.739Z,102584.78
2022-08-09T13:09:30.517Z,102579.25
2022-08-09T13:12:02.873Z,102570.97
2022-08-09T13:14:41.899Z,102576.75
2022-08-09T13:17:43.672Z,102572.06
2022-08-09T13:20:13.962Z,102582.19
2022-08-09T13:23:01.265Z,102582.63
2022-08-09T13:25:52.881Z,102582.03
2022-08-09T13:28:33.827Z,102580.28
2022-08-09T13:32:13.912Z,102575.91
2022-08-09T13:33:56.841Z,102578.28
2022-08-09T13:36:41.032Z,102580.22
2022-08-09T13:41:55.968Z,102582.56
2022-08-09T13:42:02.515Z,102581.63
2022-08-09T13:44:30.230Z,102574.88
2022-08-09T13:47:29.404Z,102579.53
2022-08-09T13:49:58.203Z,102575.66
2022-08-09T13:52:29.251Z,102579.75
2022-08-09T13:54:58.894Z,102574.34
2022-08-09T13:57:37.388Z,102577.22
2022-08-09T14:00:07.428Z,102570.13
2022-08-09T14:02:42.022Z,102574.34
2022-08-09T14:05:13.494Z,102576.19
2022-08-09T14:08:01.417Z,102588.00
2022-08-09T14:10:37.689Z,102579.19
2022-08-09T14:13:27.948Z,102574.78
2022-08-09T14:16:07.024Z,102579.25
2022-08-09T14:18:37.254Z,102583.97
2022-08-09T14:21:04.103Z,102583.38
2022-08-09T14:23:40.127Z,102588.06
2022-08-09T14:26:20.442Z,102595.66
2022-08-09T14:28:47.574Z,102582.97
2022-08-09T14:31:14.197Z,102591.84
2022-08-09T14:33:40.672Z,102583.22
2022-08-09T14:36:20.875Z,102600.28
2022-08-09T14:38:52.614Z,102587.94
2022-08-09T14:41:34.617Z,102588.91
2022-08-09T14:44:06.468Z,102602.97
2022-08-09T14:46:54.552Z,102585.81
2022-08-09T14:49:23.696Z,102599.47
2022-08-09T14:51:50.843Z,102594.28
2022-08-09T14:54:27.687Z,102587.84
2022-08-09T14:56:58.651Z,102593.25
2022-08-09T14:59:27.385Z,102592.13
2022-08-09T15:01:55.498Z,102595.78
2022-08-09T15:04:23.649Z,102589.94
2022-08-09T15:06:51.433Z,102591.38
2022-08-09T15:09:30.462Z,102596.31
2022-08-09T15:12:07.814Z,102596.28
2022-08-09T15:14:35.058Z,102597.78
2022-08-09T15:17:07.764Z,102594.00
2022-08-09T15:19:36.625Z,102594.13
2022-08-09T15:22:03.783Z,102596.69
2022-08-09T15:24:32.020Z,102596.13
2022-08-09T15:26:59.652Z,102588.81
2022-08-09T15:30:57.390Z,102592.00
2022-08-09T15:32:29.671Z,102592.63
2022-08-09T15:35:01.422Z,102581.16
2022-08-09T15:37:37.833Z,102582.69
2022-08-09T15:40:22.546Z,102581.78
2022-08-09T15:42:52.715Z,102587.97
2022-08-09T15:45:29.440Z,102586.47
2022-08-09T15:48:05.557Z,102585.94
2022-08-09T15:50:43.865Z,102582.03
2022-08-09T15:53:17.915Z,102581.75
2022-08-09T15:56:21.578Z,102579.13
2022-08-09T15:58:46.496Z,102577.69
2022-08-09T16:01:13.420Z,102578.50
2022-08-09T16:03:41.502Z,102568.31
2022-08-09T16:06:32.401Z,102573.88
2022-08-09T16:08:56.187Z,102572.47
2022-08-09T16:11:22.736Z,102570.66
2022-08-09T16:14:04.922Z,102570.78
2022-08-09T16:16:34.683Z,102579.94
2022-08-09T16:19:04.515Z,102580.81
2022-08-09T16:21:31.837Z,102581.72
2022-08-09T16:24:02.336Z,102566.53
2022-08-09T16:26:35.254Z,102572.59
2022-08-09T16:29:14.020Z,102576.59
2022-08-09T16:32:18.802Z,102572.41
2022-08-09T16:34:55.063Z,102570.38
2022-08-09T16:37:18.686Z,102581.41
2022-08-09T16:39:48.154Z,102573.22
2022-08-09T16:42:29.058Z,102585.50
2022-08-09T16:44:55.977Z,102568.88
2022-08-09T16:48:43.399Z,102567.59
2022-08-09T16:50:31.101Z,102581.69
2022-08-09T16:52:56.154Z,102571.28
2022-08-09T16:55:23.315Z,102571.09
2022-08-09T16:58:10.268Z,102566.59
2022-08-09T17:00:36.735Z,102582.72
2022-08-09T17:03:05.253Z,102573.06
2022-08-09T17:06:07.578Z,102578.53
2022-08-09T17:08:44.100Z,102579.22
2022-08-09T17:11:06.769Z,102573.94
2022-08-09T17:13:34.310Z,102574.69
2022-08-09T17:16:02.292Z,102576.75
2022-08-09T17:18:30.037Z,102583.44
2022-08-09T17:20:56.920Z,102578.53
2022-08-09T17:23:23.866Z,102579.91
2022-08-09T17:26:10.448Z,102578.84
2022-08-09T17:28:39.054Z,102583.28
2022-08-09T17:31:05.866Z,102588.66
2022-08-09T17:33:35.982Z,102580.41
2022-08-09T17:36:04.854Z,102589.97
2022-08-09T17:38:37.105Z,102594.47
2022-08-09T17:41:05.745Z,102592.97
2022-08-09T17:43:37.014Z,102594.28
2022-08-09T17:46:08.819Z,102585.75
2022-08-09T17:48:51.776Z,102603.06
2022-08-09T17:51:19.991Z,102598.44
2022-08-09T17:53:51.918Z,102604.69
2022-08-09T17:56:32.418Z,102602.69
2022-08-09T17:59:09.048Z,102600.84
2022-08-09T18:01:40.790Z,102604.44
2022-08-09T18:04:22.672Z,102602.72
2022-08-09T18:06:54.300Z,102604.50
2022-08-09T18:09:23.152Z,102617.91
2022-08-09T18:12:14.637Z,102606.31
2022-08-09T18:14:38.029Z,102604.72
2022-08-09T18:17:27.325Z,102608.88
2022-08-09T18:20:56.016Z,102598.91
2022-08-09T18:22:54.644Z,102592.53
2022-08-09T18:25:21.161Z,102593.69
2022-08-09T18:28:21.556Z,102583.31
2022-08-09T18:30:54.703Z,102594.72
2022-08-09T18:33:23.016Z,102589.69
2022-08-09T18:36:00.185Z,102592.16
2022-08-09T18:38:27.413Z,102591.28
2022-08-09T18:40:55.388Z,102587.16
2022-08-09T18:43:23.276Z,102581.97
2022-08-09T18:46:47.136Z,102587.03
2022-08-09T18:48:36.606Z,102579.94
2022-08-09T18:51:03.191Z,102575.84
2022-08-09T18:53:56.497Z,102576.63
2022-08-09T18:56:20.093Z,102591.00
2022-08-09T18:58:55.247Z,102588.59
2022-08-09T19:01:22.450Z,102586.22
2022-08-09T19:03:54.643Z,102593.53
2022-08-09T19:06:32.924Z,102591.63
2022-08-09T19:09:02.480Z,102595.25
2022-08-09T19:11:37.380Z,102598.94
2022-08-09T19:14:06.614Z,102601.59
2022-08-09T19:16:36.524Z,102607.00
2022-08-09T19:19:26.126Z,102599.94
2022-08-09T19:22:04.800Z,102613.25
2022-08-09T19:25:07.508Z,102617.75
2022-08-09T19:27:21.007Z,102617.81
2022-08-09T19:30:21.478Z,102614.28
2022-08-09T19:32:35.912Z,102624.13
2022-08-09T19:35:04.352Z,102633.94
2022-08-09T19:37:41.118Z,102629.50
2022-08-09T19:40:19.383Z,102642.75
2022-08-09T19:42:49.497Z,102636.59
2022-08-09T19:45:16.525Z,102644.53
2022-08-09T19:47:44.415Z,102648.13
2022-08-09T19:50:50.293Z,102649.03
2022-08-09T19:52:59.437Z,102647.25
2022-08-09T19:55:39.120Z,102642.84
2022-08-09T19:58:16.081Z,102649.06
2022-08-09T20:00:45.554Z,102647.34
2022-08-09T20:04:10.799Z,102642.94
2022-08-09T20:05:59.386Z,102646.47
2022-08-09T20:08:34.847Z,102636.75
2022-08-09T20:11:02.726Z,102637.66
2022-08-09T20:13:32.259Z,102643.84
2022-08-09T20:16:35.051Z,102640.28
2022-08-09T20:19:04.000Z,102638.53
2022-08-09T20:21:54.979Z,102634.09
2022-08-09T20:24:29.853Z,102637.66
2022-08-09T20:27:01.006Z,102635.88
2022-08-09T20:29:32.478Z,102631.47
2022-08-09T20:32:31.258Z,102642.91
2022-08-09T20:34:50.786Z,102638.53
2022-08-09T20:37:21.586Z,102638.50
2022-08-09T20:40:15.716Z,102641.16
2022-08-09T20:42:37.721Z,102642.00
2022-08-09T20:45:59.103Z,102648.19
2022-08-09T20:47:52.276Z,102642.03
2022-08-09T20:50:46.658Z,102642.88
2022-08-09T20:53:05.614Z,102642.88
2022-08-09T20:56:01.967Z,102651.63
2022-08-09T20:58:32.288Z,102645.44
2022-08-09T21:01:14.166Z,102649.88
2022-08-09T21:05:48.298Z,102659.50
2022-08-09T21:06:36.006Z,102650.59
2022-08-09T21:09:03.354Z,102659.44
2022-08-09T21:14:17.058Z,102647.00
2022-08-09T21:16:45.945Z,102655.69
2022-08-09T21:20:17.809Z,102654.94
2022-08-09T21:22:00.023Z,102641.66
2022-08-09T21:24:28.821Z,102651.19
2022-08-09T21:26:59.937Z,102643.22
2022-08-09T21:29:49.614Z,102641.34
2022-08-09T21:32:18.774Z,102649.59
2022-08-09T21:34:49.259Z,102651.25
2022-08-09T21:37:18.123Z,102668.53
2022-08-09T21:39:45.208Z,102663.41
2022-08-09T21:42:17.220Z,102661.50
2022-08-09T21:44:44.640Z,102665.94
2022-08-09T21:47:17.561Z,102661.59
2022-08-09T21:49:45.394Z,102660.66
2022-08-09T21:52:15.010Z,102649.97
2022-08-09T21:55:03.302Z,102662.31
2022-08-09T21:57:39.385Z,102659.59
2022-08-09T22:00:26.821Z,102650.81
2022-08-09T22:03:01.166Z,102652.94
2022-08-09T22:05:36.931Z,102641.78
2022-08-09T22:08:13.745Z,102640.13
2022-08-09T22:11:50.505Z,102645.22
2022-08-09T22:13:34.497Z,102647.03
2022-08-09T22:16:07.834Z,102657.69
2022-08-09T22:18:35.191Z,102661.09
2022-08-09T22:21:03.796Z,102662.03
2022-08-09T22:23:58.524Z,102659.97
2022-08-09T22:26:34.372Z,102654.69
2022-08-09T22:29:07.205Z,102654.59
2022-08-09T22:31:44.569Z,102653.88
2022-08-09T22:34:25.717Z,102645.78
2022-08-09T22:36:53.211Z,102645.75
2022-08-09T22:39:47.275Z,102650.22
2022-08-09T22:42:16.233Z,102651.84
2022-08-09T22:44:48.522Z,102649.16
2022-08-09T22:48:12.784Z,102638.59
2022-08-09T22:50:13.493Z,102645.34
2022-08-09T22:52:40.031Z,102655.63
2022-08-09T22:55:09.032Z,102644.38
2022-08-09T22:58:00.204Z,102651.50
2022-08-09T23:00:29.629Z,102644.13
2022-08-09T23:02:56.256Z,102640.09
2022-08-09T23:05:22.818Z,102634.84
2022-08-09T23:08:22.286Z,102627.59
2022-08-09T23:10:55.879Z,102641.56
2022-08-09T23:13:22.371Z,102633.91
2022-08-09T23:16:02.823Z,102642.47
2022-08-09T23:18:30.737Z,102644.22
2022-08-09T23:20:57.206Z,102648.41
2022-08-09T23:23:23.723Z,102646.97
2022-08-09T23:25:50.307Z,102645.22
2022-08-09T23:28:16.794Z,102644.22
2022-08-09T23:30:51.546Z,102646.78
2022-08-09T23:33:22.286Z,102641.31
2022-08-09T23:36:06.391Z,102642.28
2022-08-09T23:38:33.861Z,102639.97
2022-08-09T23:41:01.365Z,102635.91
2022-08-09T23:43:27.856Z,102638.50
2022-08-09T23:45:54.347Z,102640.53
2022-08-09T23:48:20.913Z,102643.16
2022-08-09T23:50:47.421Z,102638.53
2022-08-09T23:53:13.892Z,102644.53
2022-08-09T23:55:41.459Z,102642.84
2022-08-09T23:58:25.816Z,102632.47
